Flight Track Log - Related Links

Times and Time Zones

All times are in EDT time to prevent confusion due to time zone crossing. See the N655CM flight status page for this flight to view local times or setup timezone preferences in your user account.

Time Position Orientation Groundspeed Altitude Reporting Facility
EDT Latitude Longitude Course Direction KTS MPH feet Rate Location/Type
Sun 12:07:06 PM 27.7044 -80.2953 39° Northeast 395 455 3,800  Level Miami Center
Sun 12:08:06 PM 27.7575 -80.2475 39° Northeast 297 342 4,900 1,700 Climbing Miami Center
Sun 12:09:06 PM 27.8153 -80.1883 42° Northeast 271 312 7,200 2,000 Climbing Miami Center
Sun 12:10:06 PM 27.8689 -80.1358 41° Northeast 271 312 8,900 1,800 Climbing Miami Center
Sun 12:11:06 PM 27.9344 -80.0883 33° Northeast 271 312 10,800 1,500 Climbing Miami Center
Sun 12:12:06 PM 28.0144 -80.0625 16° North 271 312 11,900 1,600 Climbing Miami Center
Sun 12:13:06 PM 28.0964 -80.0342 17° North 292 336 14,000 1,750 Climbing Miami Center
Sun 12:14:06 PM 28.1617 -80.0100 18° North 430 495 15,400 1,800 Climbing Miami Center
Sun 12:15:06 PM 28.2794 -79.9756 14° North 387 445 17,600 1,850 Climbing Miami Center
Sun 12:16:06 PM 28.3656 -79.9425 19° North 336 387 19,100 1,400 Climbing Miami Center
Sun 12:17:06 PM 28.4581 -79.9075 18° North 326 375 20,400 1,267 Climbing Miami Center
Sun 12:19:06 PM 28.6433 -79.8414 17° North 343 395 22,900 1,200 Climbing Miami Center
Sun 12:20:06 PM 28.7422 -79.7992 21° North 355 409 24,000 1,050 Climbing Miami Center
Sun 12:21:06 PM 28.8369 -79.7544 22° Northeast 361 415 25,000 1,000 Climbing Miami Center
Sun 12:22:06 PM 28.9381 -79.7072 22° Northeast 373 429 26,000 950 Climbing Miami Center
Sun 12:23:06 PM 29.0392 -79.6622 21° North 379 436 26,900 900 Climbing Miami Center
Sun 12:24:06 PM 29.1422 -79.6175 21° North 388 447 27,800 800 Climbing Miami Center
Sun 12:25:06 PM 29.2414 -79.5603 27° Northeast 388 447 28,500 700 Climbing Miami Center
Sun 12:26:06 PM 29.3506 -79.5225 17° North 393 452 29,200 750 Climbing Miami Center
Sun 12:27:06 PM 29.4575 -79.4872 16° North 393 452 30,000 750 Climbing Miami Center
Sun 12:28:06 PM 29.5647 -79.4467 18° North 393 452 30,700 792 Climbing Miami Center
Sun 12:30:23 PM 29.7917 -79.3556 19° North 396 456 32,600 853 Climbing Jacksonville Center
Sun 12:31:23 PM 29.8950 -79.3183 17° North 396 456 33,500 850 Climbing Jacksonville Center
Sun 12:32:23 PM 29.9983 -79.2783 19° North 391 450 34,300 800 Climbing Jacksonville Center
Sun 12:33:23 PM 30.1058 -79.2456 15° North 386 444 35,100 750 Climbing Jacksonville Center
Sun 12:34:23 PM 30.2025 -79.1964 24° Northeast 386 444 35,800 650 Climbing Jacksonville Center
Sun 12:35:23 PM 30.3058 -79.1611 16° North 378 435 36,400 650 Climbing Jacksonville Center
Sun 12:36:23 PM 30.4028 -79.1236 18° North 378 435 37,100 700 Climbing Jacksonville Center
Sun 12:37:23 PM 30.5103 -79.0831 18° North 378 435 37,800 700 Climbing Jacksonville Center
Sun 12:38:23 PM 30.6258 -79.0400 18° North 384 442 38,500 600 Climbing Jacksonville Center
Sun 12:39:23 PM 30.7267 -78.9947 21° North 384 442 39,000 250 Climbing Jacksonville Center
Sun 12:40:23 PM 30.8278 -78.9519 20° North 384 442 39,000  Level Jacksonville Center
Sun 12:41:23 PM 30.9369 -78.9086 19° North 400 460 39,000  Level Jacksonville Center
Sun 12:42:23 PM 31.0378 -78.8656 20° North 408 470 39,000  Level Jacksonville Center
Sun 12:43:23 PM 31.1492 -78.8172 20° North 414 476 39,000  Level Jacksonville Center
Sun 12:44:23 PM 31.2625 -78.7708 19° North 422 486 39,000  Level Jacksonville Center
Sun 12:45:23 PM 31.3756 -78.7222 20° North 422 486 39,000  Level Jacksonville Center
Sun 12:46:23 PM 31.4908 -78.6731 20° North 424 488 39,000  Level Jacksonville Center
Sun 12:47:23 PM 31.6061 -78.6214 21° North 429 494 39,000  Level Jacksonville Center
Sun 12:48:23 PM 31.7192 -78.5725 20° North 429 494 39,000  Level Jacksonville Center
Sun 12:49:23 PM 31.8344 -78.5253 19° North 429 494 39,000  Level Jacksonville Center
Sun 12:50:23 PM 31.9517 -78.4733 21° North 435 501 39,000  Level Jacksonville Center
Sun 12:51:23 PM 32.0689 -78.4236 20° North 441 507 39,000  Level Jacksonville Center
Sun 12:52:23 PM 32.1861 -78.3736 20° North 446 513 39,000  Level Jacksonville Center
Sun 12:53:23 PM 32.3011 -78.3236 20° North 440 506 39,000  Level Jacksonville Center
Sun 12:54:23 PM 32.4161 -78.2664 23° Northeast 440 506 39,000  Level Jacksonville Center
Sun 12:55:23 PM 32.5311 -78.2186 19° North 440 506 39,000  Level Jacksonville Center
Sun 12:56:23 PM 32.6481 -78.1633 22° Northeast 440 506 39,000  Level Jacksonville Center
Sun 12:57:23 PM 32.7611 -78.1153 20° North 440 506 39,000  Level Jacksonville Center
Sun 12:58:23 PM 32.8781 -78.0647 20° North 440 506 39,000  Level Jacksonville Center
Sun 01:00:29 PM 33.1328 -77.9519 20° North 460 529 39,000  Level Washington Center
Sun 01:01:30 PM 33.2506 -77.9033 19° North 449 517 39,000  Level Washington Center
Sun 01:02:31 PM 33.3661 -77.8517 20° North 454 522 39,000  Level Washington Center
Sun 01:03:29 PM 33.4797 -77.8000 21° North 448 516 39,000  Level Washington Center
Sun 01:04:30 PM 33.5956 -77.7483 20° North 448 516 39,000  Level Washington Center
Sun 01:05:30 PM 33.7111 -77.6964 21° North 443 510 39,000  Level Washington Center
Sun 01:06:31 PM 33.8247 -77.6442 21° North 438 504 39,000  Level Washington Center
Sun 01:07:31 PM 33.9425 -77.5894 21° North 438 504 39,000  Level Washington Center
Sun 01:08:29 PM 34.0475 -77.5444 20° North 438 504 39,000  Level Washington Center
Sun 01:09:31 PM 34.1608 -77.4919 21° North 438 504 39,000  Level Washington Center
Sun 01:10:29 PM 34.2764 -77.4392 21° North 433 498 39,000  Level Washington Center
Sun 01:11:29 PM 34.3900 -77.3889 20° North 433 498 39,000  Level Washington Center
Sun 01:12:30 PM 34.5033 -77.3386 20° North 433 498 39,000  Level Washington Center
Sun 01:13:31 PM 34.6189 -77.2856 21° North 433 498 39,000  Level Washington Center
Sun 01:14:31 PM 34.7322 -77.2322 21° North 433 498 39,000  Level Washington Center
Sun 01:15:30 PM 34.8561 -77.1739 21° North 433 498 39,000  Level Washington Center
Sun 01:16:31 PM 34.9675 -77.1231 21° North 433 498 39,000  Level Washington Center
Sun 01:17:29 PM 35.0703 -77.0792 19° North 433 498 39,000  Level Washington Center
Sun 01:18:30 PM 35.1919 -77.0178 22° Northeast 433 498 39,000  Level Washington Center
Sun 01:19:30 PM 35.3031 -76.9664 21° North 433 498 39,000  Level Washington Center
Sun 01:20:31 PM 35.4144 -76.9122 22° Northeast 433 498 39,000  Level Washington Center
Sun 01:21:31 PM 35.5275 -76.8606 20° North 428 493 39,000  Level Washington Center
Sun 01:22:31 PM 35.6136 -76.8183 22° Northeast 428 493 39,000  Level Washington Center
Sun 01:23:30 PM 35.7414 -76.7589 21° North 422 486 39,000  Level Washington Center
Sun 01:24:30 PM 35.8483 -76.7067 22° Northeast 417 480 39,000  Level Washington Center
Sun 01:25:31 PM 35.9572 -76.6569 20° North 417 480 39,000  Level Washington Center
Sun 01:26:31 PM 36.0661 -76.6044 21° North 417 480 39,000  Level Washington Center
Sun 01:27:29 PM 36.1772 -76.5517 21° North 417 480 39,000  Level Washington Center
Sun 01:28:29 PM 36.2861 -76.4989 21° North 417 480 39,000  Level Washington Center
Sun 01:29:30 PM 36.3928 -76.4486 21° North 417 480 39,000  Level Washington Center
Sun 01:30:30 PM 36.5017 -76.3956 21° North 417 480 39,000  Level Washington Center
Sun 01:31:31 PM 36.6086 -76.3450 21° North 417 480 39,000  Level Washington Center
Sun 01:32:31 PM 36.7172 -76.2889 22° Northeast 412 474 39,000  Level Washington Center
Sun 01:33:29 PM 36.8239 -76.2353 22° Northeast 412 474 39,000  Level Washington Center
Sun 01:34:30 PM 36.9306 -76.1817 22° Northeast 412 474 39,000  Level Washington Center
Sun 01:35:31 PM 37.0436 -76.1253 22° Northeast 417 480 39,000  Level Washington Center
Sun 01:36:29 PM 37.1503 -76.0686 23° Northeast 417 480 39,000  Level Washington Center
Sun 01:37:30 PM 37.2442 -76.0172 24° Northeast 411 473 39,000  Level Washington Center
Sun 01:38:30 PM 37.3489 -75.9603 23° Northeast 411 473 39,000  Level Washington Center
Sun 01:39:29 PM 37.4533 -75.9031 24° Northeast 411 473 39,000  Level Washington Center
Sun 01:40:30 PM 37.5597 -75.8433 24° Northeast 411 473 39,000  Level Washington Center
Sun 01:41:31 PM 37.6619 -75.7675 30° Northeast 411 473 39,000  Level Washington Center
Sun 01:42:32 PM 37.7644 -75.6917 30° Northeast 417 480 39,000  Level Washington Center
Sun 01:43:30 PM 37.8667 -75.6128 31° Northeast 422 486 39,000  Level Washington Center
Sun 01:44:30 PM 37.9644 -75.5311 33° Northeast 422 486 39,000  Level Washington Center
Sun 01:45:31 PM 38.0667 -75.4572 30° Northeast 422 486 39,000  Level Washington Center
Sun 01:46:30 PM 38.1708 -75.3964 25° Northeast 422 486 39,000 -504 Level Washington Center
Sun 01:47:30 PM 38.2769 -75.3272 27° Northeast 411 473 38,000 -992 Descending Washington Center
Sun 01:48:31 PM 38.3875 -75.2606 25° Northeast 405 466 37,000 -1,109 Descending Washington Center
Sun 01:49:29 PM 38.4789 -75.1992 28° Northeast 385 443 35,800 -1,008 Descending Washington Center
Sun 01:50:30 PM 38.5664 -75.1456 26° Northeast 360 414 35,000 -393 Descending Washington Center
Sun 01:51:31 PM 38.6536 -75.0867 28° Northeast 348 400 35,000  Level Washington Center
Sun 01:52:29 PM 38.7450 -75.0275 27° Northeast 348 400 35,000 -706 Level Washington Center
Sun 01:53:30 PM 38.8408 -74.9681 26° Northeast 354 407 33,600 -1,475 Descending Washington Center
Sun 01:54:31 PM 38.9342 -74.9086 26° Northeast 366 421 32,000 -1,785 Descending Washington Center
Sun 01:55:31 PM 39.0236 -74.8489 27° Northeast 360 414 30,000 -1,983 Descending Washington Center
Sun 01:56:29 PM 39.1147 -74.7864 28° Northeast 360 414 28,100 -1,866 Descending Washington Center
Sun 01:57:30 PM 39.2036 -74.6942 39° Northeast 382 440 26,300 -1,721 Descending Washington Center
Sun 01:58:31 PM 39.2864 -74.5967 42° Northeast 395 455 24,600 -1,916 Descending Washington Center
Sun 02:00:16 PM 39.4375 -74.4347 40° Northeast 396 456 21,000 -2,291 Descending New York Center
Sun 02:01:16 PM 39.5239 -74.3394 40° Northeast 396 456 18,300 -1,500 Descending New York Center
Sun 02:02:16 PM 39.5994 -74.2544 41° Northeast 380 437 18,000 -250 Descending New York Center
Sun 02:03:16 PM 39.6575 -74.1900 41° Northeast 329 379 17,800 -1,500 Descending New York Center
Sun 02:04:16 PM 39.7350 -74.1072 39° Northeast 312 359 15,000 -2,000 Descending New York Center
Sun 02:05:16 PM 39.7975 -74.0375 41° Northeast 317 365 13,800 -1,350 Descending New York Center
Sun 02:06:16 PM 39.8597 -73.9753 38° Northeast 291 335 12,300 -1,350 Descending New York Center
Sun 02:07:16 PM 39.9189 -73.9375 26° Northeast 267 307 11,100 -650 Descending New York Center
Sun 02:08:16 PM 39.9792 -73.8753 38° Northeast 261 300 11,000 -528 Descending New York Center
Sun 02:09:55 PM 40.0667 -73.7500 48° Northeast 277 319 9,700 -982 Descending New York TRACON
Sun 02:11:01 PM 40.1333 -73.6667 44° Northeast 283 326 8,300 -1,404 Descending New York TRACON
Sun 02:12:16 PM 40.2108 -73.6058 31° Northeast 271 312 6,400 -1,600 Descending New York Center
Sun 02:13:16 PM 40.2661 -73.5672 28° Northeast 251 289 4,700 -1,900 Descending New York Center
Sun 02:14:16 PM 40.3253 -73.5261 28° Northeast 227 261 2,600 -1,350 Descending New York Center
Sun 02:15:16 PM 40.3764 -73.4872 30° Northeast 228 262 2,000 -343 Descending New York Center
Sun 02:16:01 PM 40.4167 -73.4500 35° Northeast 223 257 2,000  Level New York TRACON
Sun 02:17:01 PM 40.4833 -73.4333 11° North 221 254 2,000  Level New York TRACON
Sun 02:18:01 PM 40.5500 -73.4167 11° North 222 255 2,000 -200 Level New York TRACON
Sun 02:19:01 PM 40.6000 -73.4167 360° North 180 207 1,600 -200 Descending New York TRACON
Sun 02:20:01 PM 40.6333 -73.4167 360° North 155 178 1,600 -400 Level New York TRACON
Sun 02:21:01 PM 40.6667 -73.4167 360° North 124 143 800 -600 Descending New York TRACON
Sun 02:22:01 PM 40.7000 -73.4167 360° North 119 137 400 -400 Descending New York TRACON
Sun 02:24:00 PM 40.7167 -73.4000 17° North  Level FlightAware Approximate
Sun 02:31:00 PM 40.7288 -73.4134 320° Northwest  Level Estimated

Login

Don't have an account? Register now (free) for customized features, flight alerts, and more!